sensor_id;sensor_type;location;lat;lon;timestamp;P1;durP1;ratioP1;P2;durP2;ratioP2
3704;SDS011;1868;48.918;9.438;2024-03-06T00:01:48;7.77;;;6.20;;
3704;SDS011;1868;48.918;9.438;2024-03-06T00:04:17;6.90;;;6.20;;
3704;SDS011;1868;48.918;9.438;2024-03-06T00:06:45;6.93;;;5.73;;
3704;SDS011;1868;48.918;9.438;2024-03-06T00:09:14;6.30;;;5.37;;
3704;SDS011;1868;48.918;9.438;2024-03-06T00:11:45;6.23;;;5.63;;
3704;SDS011;1868;48.918;9.438;2024-03-06T00:14:14;9.17;;;5.40;;
3704;SDS011;1868;48.918;9.438;2024-03-06T00:16:45;10.07;;;4.40;;
3704;SDS011;1868;48.918;9.438;2024-03-06T00:19:16;5.90;;;5.30;;
3704;SDS011;1868;48.918;9.438;2024-03-06T00:21:46;7.70;;;4.47;;
3704;SDS011;1868;48.918;9.438;2024-03-06T00:24:16;6.00;;;4.97;;
3704;SDS011;1868;48.918;9.438;2024-03-06T00:26:47;7.00;;;5.77;;
3704;SDS011;1868;48.918;9.438;2024-03-06T00:29:16;7.10;;;5.13;;
3704;SDS011;1868;48.918;9.438;2024-03-06T00:31:45;8.43;;;6.30;;
3704;SDS011;1868;48.918;9.438;2024-03-06T00:34:14;8.47;;;5.60;;
3704;SDS011;1868;48.918;9.438;2024-03-06T00:36:43;10.37;;;5.57;;
3704;SDS011;1868;48.918;9.438;2024-03-06T00:39:12;6.90;;;5.17;;
3704;SDS011;1868;48.918;9.438;2024-03-06T00:41:41;7.30;;;5.60;;
3704;SDS011;1868;48.918;9.438;2024-03-06T00:44:12;7.37;;;5.33;;
3704;SDS011;1868;48.918;9.438;2024-03-06T00:46:44;6.40;;;5.50;;
3704;SDS011;1868;48.918;9.438;2024-03-06T00:49:13;8.20;;;5.80;;
3704;SDS011;1868;48.918;9.438;2024-03-06T00:51:41;10.37;;;5.60;;
3704;SDS011;1868;48.918;9.438;2024-03-06T00:54:15;7.30;;;5.93;;
3704;SDS011;1868;48.918;9.438;2024-03-06T00:56:44;5.57;;;4.70;;
3704;SDS011;1868;48.918;9.438;2024-03-06T00:59:16;6.03;;;5.10;;
3704;SDS011;1868;48.918;9.438;2024-03-06T01:01:45;7.70;;;5.37;;
3704;SDS011;1868;48.918;9.438;2024-03-06T01:04:14;7.53;;;5.17;;
3704;SDS011;1868;48.918;9.438;2024-03-06T01:06:43;7.43;;;6.20;;
3704;SDS011;1868;48.918;9.438;2024-03-06T01:09:13;7.73;;;5.60;;
3704;SDS011;1868;48.918;9.438;2024-03-06T01:11:43;7.40;;;5.10;;
3704;SDS011;1868;48.918;9.438;2024-03-06T01:14:16;6.07;;;5.30;;
3704;SDS011;1868;48.918;9.438;2024-03-06T01:16:45;6.67;;;5.57;;
3704;SDS011;1868;48.918;9.438;2024-03-06T01:19:13;11.03;;;5.60;;
3704;SDS011;1868;48.918;9.438;2024-03-06T01:21:43;7.43;;;5.80;;
3704;SDS011;1868;48.918;9.438;2024-03-06T01:24:12;6.27;;;5.47;;
3704;SDS011;1868;48.918;9.438;2024-03-06T01:26:40;11.70;;;5.47;;
3704;SDS011;1868;48.918;9.438;2024-03-06T01:29:09;9.13;;;5.10;;
3704;SDS011;1868;48.918;9.438;2024-03-06T01:31:41;7.50;;;6.00;;
3704;SDS011;1868;48.918;9.438;2024-03-06T01:34:09;7.17;;;6.20;;
3704;SDS011;1868;48.918;9.438;2024-03-06T01:36:37;7.43;;;6.37;;
3704;SDS011;1868;48.918;9.438;2024-03-06T01:39:06;8.30;;;6.00;;
3704;SDS011;1868;48.918;9.438;2024-03-06T01:41:36;7.10;;;6.20;;
3704;SDS011;1868;48.918;9.438;2024-03-06T01:44:05;8.43;;;6.37;;
3704;SDS011;1868;48.918;9.438;2024-03-06T01:46:33;6.07;;;5.53;;
3704;SDS011;1868;48.918;9.438;2024-03-06T01:49:04;7.80;;;6.13;;
3704;SDS011;1868;48.918;9.438;2024-03-06T01:51:33;8.37;;;5.77;;
3704;SDS011;1868;48.918;9.438;2024-03-06T01:54:03;7.30;;;5.90;;
3704;SDS011;1868;48.918;9.438;2024-03-06T01:56:33;6.20;;;5.60;;
3704;SDS011;1868;48.918;9.438;2024-03-06T01:59:04;8.07;;;6.60;;
3704;SDS011;1868;48.918;9.438;2024-03-06T02:01:35;8.03;;;6.03;;
3704;SDS011;1868;48.918;9.438;2024-03-06T02:04:06;7.07;;;5.70;;
3704;SDS011;1868;48.918;9.438;2024-03-06T02:06:37;6.50;;;5.80;;
3704;SDS011;1868;48.918;9.438;2024-03-06T02:09:07;11.03;;;5.60;;
3704;SDS011;1868;48.918;9.438;2024-03-06T02:11:36;13.10;;;5.33;;
3704;SDS011;1868;48.918;9.438;2024-03-06T02:14:05;7.53;;;6.20;;
3704;SDS011;1868;48.918;9.438;2024-03-06T02:16:36;7.57;;;6.13;;
3704;SDS011;1868;48.918;9.438;2024-03-06T02:19:07;6.60;;;5.47;;
3704;SDS011;1868;48.918;9.438;2024-03-06T02:21:38;11.33;;;6.40;;
3704;SDS011;1868;48.918;9.438;2024-03-06T02:24:06;6.00;;;5.47;;
3704;SDS011;1868;48.918;9.438;2024-03-06T02:26:38;9.13;;;5.90;;
3704;SDS011;1868;48.918;9.438;2024-03-06T02:29:07;5.57;;;5.07;;
3704;SDS011;1868;48.918;9.438;2024-03-06T02:31:37;7.60;;;5.10;;
3704;SDS011;1868;48.918;9.438;2024-03-06T02:34:06;6.43;;;5.73;;
3704;SDS011;1868;48.918;9.438;2024-03-06T02:36:36;6.20;;;5.27;;
3704;SDS011;1868;48.918;9.438;2024-03-06T02:39:06;7.23;;;5.53;;
3704;SDS011;1868;48.918;9.438;2024-03-06T02:41:35;5.70;;;5.10;;
3704;SDS011;1868;48.918;9.438;2024-03-06T02:44:04;6.20;;;5.27;;
3704;SDS011;1868;48.918;9.438;2024-03-06T02:46:34;6.07;;;5.10;;
3704;SDS011;1868;48.918;9.438;2024-03-06T02:49:03;9.00;;;6.30;;
3704;SDS011;1868;48.918;9.438;2024-03-06T02:51:33;6.37;;;5.77;;
3704;SDS011;1868;48.918;9.438;2024-03-06T02:54:04;9.40;;;5.20;;
3704;SDS011;1868;48.918;9.438;2024-03-06T02:56:33;6.87;;;6.17;;
3704;SDS011;1868;48.918;9.438;2024-03-06T02:59:01;8.90;;;5.60;;
3704;SDS011;1868;48.918;9.438;2024-03-06T03:01:31;9.37;;;6.00;;
3704;SDS011;1868;48.918;9.438;2024-03-06T03:04:01;7.70;;;5.80;;
3704;SDS011;1868;48.918;9.438;2024-03-06T03:06:29;5.80;;;5.20;;
3704;SDS011;1868;48.918;9.438;2024-03-06T03:08:58;7.33;;;6.30;;
3704;SDS011;1868;48.918;9.438;2024-03-06T03:11:31;4.90;;;4.40;;
3704;SDS011;1868;48.918;9.438;2024-03-06T03:14:02;6.47;;;5.03;;
3704;SDS011;1868;48.918;9.438;2024-03-06T03:16:31;7.57;;;5.77;;
3704;SDS011;1868;48.918;9.438;2024-03-06T03:19:00;5.20;;;4.70;;
3704;SDS011;1868;48.918;9.438;2024-03-06T03:21:30;6.57;;;5.40;;
3704;SDS011;1868;48.918;9.438;2024-03-06T03:23:59;8.33;;;6.00;;
3704;SDS011;1868;48.918;9.438;2024-03-06T03:26:28;5.93;;;4.93;;
3704;SDS011;1868;48.918;9.438;2024-03-06T03:28:59;7.77;;;6.63;;
3704;SDS011;1868;48.918;9.438;2024-03-06T03:31:28;7.43;;;5.83;;
3704;SDS011;1868;48.918;9.438;2024-03-06T03:33:56;6.50;;;5.20;;
3704;SDS011;1868;48.918;9.438;2024-03-06T03:36:25;7.83;;;5.90;;
3704;SDS011;1868;48.918;9.438;2024-03-06T03:38:55;6.17;;;5.57;;
3704;SDS011;1868;48.918;9.438;2024-03-06T03:41:24;6.23;;;5.27;;
3704;SDS011;1868;48.918;9.438;2024-03-06T03:43:54;8.43;;;5.50;;
3704;SDS011;1868;48.918;9.438;2024-03-06T03:46:24;7.40;;;5.53;;
3704;SDS011;1868;48.918;9.438;2024-03-06T03:48:53;7.00;;;5.70;;
3704;SDS011;1868;48.918;9.438;2024-03-06T03:51:22;6.70;;;5.40;;
3704;SDS011;1868;48.918;9.438;2024-03-06T03:53:50;7.27;;;6.03;;
3704;SDS011;1868;48.918;9.438;2024-03-06T03:56:19;7.17;;;5.47;;
3704;SDS011;1868;48.918;9.438;2024-03-06T03:58:48;6.43;;;5.83;;
3704;SDS011;1868;48.918;9.438;2024-03-06T04:01:17;7.10;;;6.17;;
3704;SDS011;1868;48.918;9.438;2024-03-06T04:03:47;8.10;;;5.70;;
3704;SDS011;1868;48.918;9.438;2024-03-06T04:06:17;5.77;;;5.20;;
3704;SDS011;1868;48.918;9.438;2024-03-06T04:08:46;7.50;;;6.00;;
3704;SDS011;1868;48.918;9.438;2024-03-06T04:11:16;8.57;;;6.00;;
3704;SDS011;1868;48.918;9.438;2024-03-06T04:13:48;7.73;;;5.10;;
3704;SDS011;1868;48.918;9.438;2024-03-06T04:16:17;7.87;;;5.93;;
3704;SDS011;1868;48.918;9.438;2024-03-06T04:18:49;7.60;;;6.53;;
3704;SDS011;1868;48.918;9.438;2024-03-06T04:21:19;9.93;;;7.77;;
3704;SDS011;1868;48.918;9.438;2024-03-06T04:23:49;8.40;;;5.80;;
3704;SDS011;1868;48.918;9.438;2024-03-06T04:26:17;9.03;;;6.63;;
3704;SDS011;1868;48.918;9.438;2024-03-06T04:28:47;8.70;;;6.13;;
3704;SDS011;1868;48.918;9.438;2024-03-06T04:31:16;7.30;;;5.80;;
3704;SDS011;1868;48.918;9.438;2024-03-06T04:33:45;7.50;;;6.10;;
3704;SDS011;1868;48.918;9.438;2024-03-06T04:36:16;6.37;;;5.73;;
3704;SDS011;1868;48.918;9.438;2024-03-06T04:38:45;8.00;;;5.83;;
3704;SDS011;1868;48.918;9.438;2024-03-06T04:41:13;8.27;;;5.90;;
3704;SDS011;1868;48.918;9.438;2024-03-06T04:43:42;8.10;;;6.90;;
3704;SDS011;1868;48.918;9.438;2024-03-06T04:46:12;9.23;;;7.20;;
3704;SDS011;1868;48.918;9.438;2024-03-06T04:48:41;8.73;;;6.40;;
3704;SDS011;1868;48.918;9.438;2024-03-06T04:51:10;6.87;;;6.13;;
3704;SDS011;1868;48.918;9.438;2024-03-06T04:53:41;7.93;;;7.13;;
3704;SDS011;1868;48.918;9.438;2024-03-06T04:56:11;10.93;;;6.90;;
3704;SDS011;1868;48.918;9.438;2024-03-06T04:58:41;9.07;;;5.87;;
3704;SDS011;1868;48.918;9.438;2024-03-06T05:01:13;9.60;;;6.87;;
3704;SDS011;1868;48.918;9.438;2024-03-06T05:03:42;10.80;;;6.90;;
3704;SDS011;1868;48.918;9.438;2024-03-06T05:06:29;7.67;;;6.30;;
3704;SDS011;1868;48.918;9.438;2024-03-06T05:09:16;8.83;;;6.30;;
3704;SDS011;1868;48.918;9.438;2024-03-06T05:12:02;8.40;;;6.70;;
3704;SDS011;1868;48.918;9.438;2024-03-06T05:14:49;7.60;;;6.10;;
3704;SDS011;1868;48.918;9.438;2024-03-06T05:17:36;12.50;;;7.50;;
3704;SDS011;1868;48.918;9.438;2024-03-06T05:20:23;10.57;;;7.07;;
3704;SDS011;1868;48.918;9.438;2024-03-06T05:23:10;7.00;;;6.27;;
3704;SDS011;1868;48.918;9.438;2024-03-06T05:25:58;7.53;;;6.70;;
3704;SDS011;1868;48.918;9.438;2024-03-06T05:28:44;7.90;;;6.90;;
3704;SDS011;1868;48.918;9.438;2024-03-06T05:31:30;8.07;;;7.07;;
3704;SDS011;1868;48.918;9.438;2024-03-06T05:34:17;8.67;;;6.60;;
3704;SDS011;1868;48.918;9.438;2024-03-06T05:37:04;7.43;;;6.67;;
3704;SDS011;1868;48.918;9.438;2024-03-06T05:39:53;9.00;;;7.00;;
3704;SDS011;1868;48.918;9.438;2024-03-06T05:42:42;9.27;;;7.07;;
3704;SDS011;1868;48.918;9.438;2024-03-06T05:45:28;8.50;;;7.10;;
3704;SDS011;1868;48.918;9.438;2024-03-06T05:48:15;7.87;;;6.80;;
3704;SDS011;1868;48.918;9.438;2024-03-06T05:51:02;12.70;;;7.33;;
3704;SDS011;1868;48.918;9.438;2024-03-06T05:53:48;8.60;;;7.60;;
3704;SDS011;1868;48.918;9.438;2024-03-06T05:56:35;10.20;;;8.00;;
3704;SDS011;1868;48.918;9.438;2024-03-06T05:59:24;8.30;;;7.40;;
3704;SDS011;1868;48.918;9.438;2024-03-06T06:01:55;9.00;;;7.73;;
3704;SDS011;1868;48.918;9.438;2024-03-06T06:04:24;9.47;;;8.07;;
3704;SDS011;1868;48.918;9.438;2024-03-06T06:06:52;10.17;;;8.87;;
3704;SDS011;1868;48.918;9.438;2024-03-06T06:09:22;12.53;;;7.90;;
3704;SDS011;1868;48.918;9.438;2024-03-06T06:11:52;8.70;;;7.80;;
3704;SDS011;1868;48.918;9.438;2024-03-06T06:14:20;8.70;;;7.57;;
3704;SDS011;1868;48.918;9.438;2024-03-06T06:16:52;9.23;;;7.90;;
3704;SDS011;1868;48.918;9.438;2024-03-06T06:19:20;13.53;;;8.93;;
3704;SDS011;1868;48.918;9.438;2024-03-06T06:21:50;10.40;;;8.20;;
3704;SDS011;1868;48.918;9.438;2024-03-06T06:24:22;9.70;;;8.70;;
3704;SDS011;1868;48.918;9.438;2024-03-06T06:26:53;8.80;;;7.80;;
3704;SDS011;1868;48.918;9.438;2024-03-06T06:29:22;9.80;;;8.43;;
3704;SDS011;1868;48.918;9.438;2024-03-06T06:31:53;11.40;;;8.73;;
3704;SDS011;1868;48.918;9.438;2024-03-06T06:34:25;9.57;;;8.33;;
3704;SDS011;1868;48.918;9.438;2024-03-06T06:36:56;11.73;;;7.97;;
3704;SDS011;1868;48.918;9.438;2024-03-06T06:39:25;9.07;;;8.10;;
3704;SDS011;1868;48.918;9.438;2024-03-06T06:41:55;10.53;;;8.80;;
3704;SDS011;1868;48.918;9.438;2024-03-06T06:44:26;9.87;;;8.70;;
3704;SDS011;1868;48.918;9.438;2024-03-06T06:46:57;10.43;;;9.03;;
3704;SDS011;1868;48.918;9.438;2024-03-06T06:49:25;12.80;;;8.90;;
3704;SDS011;1868;48.918;9.438;2024-03-06T06:51:55;8.40;;;7.60;;
3704;SDS011;1868;48.918;9.438;2024-03-06T06:54:24;12.47;;;8.83;;
3704;SDS011;1868;48.918;9.438;2024-03-06T06:56:53;10.87;;;9.70;;
3704;SDS011;1868;48.918;9.438;2024-03-06T06:59:21;9.37;;;8.37;;
3704;SDS011;1868;48.918;9.438;2024-03-06T07:01:51;13.70;;;9.30;;
3704;SDS011;1868;48.918;9.438;2024-03-06T07:04:23;11.33;;;8.40;;
3704;SDS011;1868;48.918;9.438;2024-03-06T07:06:52;13.23;;;9.80;;
3704;SDS011;1868;48.918;9.438;2024-03-06T07:09:21;12.10;;;9.70;;
3704;SDS011;1868;48.918;9.438;2024-03-06T07:11:49;17.50;;;11.60;;
3704;SDS011;1868;48.918;9.438;2024-03-06T07:14:18;17.23;;;11.47;;
3704;SDS011;1868;48.918;9.438;2024-03-06T07:16:47;13.80;;;9.80;;
3704;SDS011;1868;48.918;9.438;2024-03-06T07:19:16;12.03;;;9.60;;
3704;SDS011;1868;48.918;9.438;2024-03-06T07:21:46;12.20;;;9.47;;
3704;SDS011;1868;48.918;9.438;2024-03-06T07:24:16;11.43;;;8.77;;
3704;SDS011;1868;48.918;9.438;2024-03-06T07:26:44;9.80;;;8.80;;
3704;SDS011;1868;48.918;9.438;2024-03-06T07:29:13;11.43;;;8.77;;
3704;SDS011;1868;48.918;9.438;2024-03-06T07:31:42;9.37;;;8.30;;
3704;SDS011;1868;48.918;9.438;2024-03-06T07:34:11;12.23;;;8.40;;
3704;SDS011;1868;48.918;9.438;2024-03-06T07:36:41;9.70;;;8.60;;
3704;SDS011;1868;48.918;9.438;2024-03-06T07:39:11;9.93;;;8.93;;
3704;SDS011;1868;48.918;9.438;2024-03-06T07:41:41;9.40;;;8.30;;
3704;SDS011;1868;48.918;9.438;2024-03-06T07:44:11;14.07;;;9.17;;
3704;SDS011;1868;48.918;9.438;2024-03-06T07:46:40;9.30;;;8.30;;
3704;SDS011;1868;48.918;9.438;2024-03-06T07:49:09;9.27;;;8.27;;
3704;SDS011;1868;48.918;9.438;2024-03-06T07:51:38;10.43;;;9.37;;
3704;SDS011;1868;48.918;9.438;2024-03-06T07:54:07;11.00;;;8.97;;
3704;SDS011;1868;48.918;9.438;2024-03-06T07:56:38;12.30;;;8.50;;
3704;SDS011;1868;48.918;9.438;2024-03-06T07:59:07;10.60;;;9.07;;
3704;SDS011;1868;48.918;9.438;2024-03-06T08:01:38;11.33;;;9.37;;
3704;SDS011;1868;48.918;9.438;2024-03-06T08:04:07;12.73;;;8.30;;
3704;SDS011;1868;48.918;9.438;2024-03-06T08:06:36;13.27;;;9.33;;
3704;SDS011;1868;48.918;9.438;2024-03-06T08:09:05;13.10;;;8.70;;
3704;SDS011;1868;48.918;9.438;2024-03-06T08:11:34;13.87;;;10.57;;
3704;SDS011;1868;48.918;9.438;2024-03-06T08:14:05;11.60;;;9.40;;
3704;SDS011;1868;48.918;9.438;2024-03-06T08:16:34;14.43;;;10.00;;
3704;SDS011;1868;48.918;9.438;2024-03-06T08:19:04;16.37;;;9.77;;
3704;SDS011;1868;48.918;9.438;2024-03-06T08:21:32;12.30;;;9.30;;
3704;SDS011;1868;48.918;9.438;2024-03-06T08:24:01;10.27;;;8.17;;
3704;SDS011;1868;48.918;9.438;2024-03-06T08:26:32;14.70;;;10.30;;
3704;SDS011;1868;48.918;9.438;2024-03-06T08:29:00;9.90;;;8.57;;
3704;SDS011;1868;48.918;9.438;2024-03-06T08:31:32;14.63;;;11.10;;
3704;SDS011;1868;48.918;9.438;2024-03-06T08:34:01;11.13;;;9.77;;
3704;SDS011;1868;48.918;9.438;2024-03-06T08:36:30;13.47;;;11.07;;
3704;SDS011;1868;48.918;9.438;2024-03-06T08:39:00;12.10;;;9.83;;
3704;SDS011;1868;48.918;9.438;2024-03-06T08:41:29;14.33;;;11.40;;
3704;SDS011;1868;48.918;9.438;2024-03-06T08:43:59;18.90;;;12.63;;
3704;SDS011;1868;48.918;9.438;2024-03-06T08:46:28;16.20;;;12.00;;
3704;SDS011;1868;48.918;9.438;2024-03-06T08:48:59;15.20;;;11.50;;
3704;SDS011;1868;48.918;9.438;2024-03-06T08:51:34;20.00;;;12.53;;
3704;SDS011;1868;48.918;9.438;2024-03-06T08:54:03;14.13;;;12.30;;
3704;SDS011;1868;48.918;9.438;2024-03-06T08:56:37;13.83;;;11.40;;
3704;SDS011;1868;48.918;9.438;2024-03-06T08:59:06;13.40;;;11.80;;
3704;SDS011;1868;48.918;9.438;2024-03-06T09:01:35;16.07;;;11.63;;
3704;SDS011;1868;48.918;9.438;2024-03-06T09:04:05;18.77;;;13.07;;
3704;SDS011;1868;48.918;9.438;2024-03-06T09:06:34;13.37;;;11.93;;
3704;SDS011;1868;48.918;9.438;2024-03-06T09:09:04;15.20;;;12.20;;
3704;SDS011;1868;48.918;9.438;2024-03-06T09:11:33;12.23;;;10.93;;
3704;SDS011;1868;48.918;9.438;2024-03-06T09:14:02;12.10;;;10.80;;
3704;SDS011;1868;48.918;9.438;2024-03-06T09:16:31;13.53;;;12.07;;
3704;SDS011;1868;48.918;9.438;2024-03-06T09:19:01;18.67;;;14.47;;
3704;SDS011;1868;48.918;9.438;2024-03-06T09:21:34;13.10;;;11.43;;
3704;SDS011;1868;48.918;9.438;2024-03-06T09:24:03;16.83;;;11.63;;
3704;SDS011;1868;48.918;9.438;2024-03-06T09:26:33;18.97;;;14.70;;
3704;SDS011;1868;48.918;9.438;2024-03-06T09:29:02;15.20;;;12.67;;
3704;SDS011;1868;48.918;9.438;2024-03-06T09:31:41;16.10;;;12.27;;
3704;SDS011;1868;48.918;9.438;2024-03-06T09:34:12;13.33;;;11.33;;
3704;SDS011;1868;48.918;9.438;2024-03-06T09:36:46;12.80;;;11.00;;
3704;SDS011;1868;48.918;9.438;2024-03-06T09:39:18;17.27;;;11.20;;
3704;SDS011;1868;48.918;9.438;2024-03-06T09:41:49;14.70;;;11.80;;
3704;SDS011;1868;48.918;9.438;2024-03-06T09:44:18;14.23;;;11.47;;
3704;SDS011;1868;48.918;9.438;2024-03-06T09:46:49;16.27;;;11.23;;
3704;SDS011;1868;48.918;9.438;2024-03-06T09:49:18;16.03;;;10.53;;
3704;SDS011;1868;48.918;9.438;2024-03-06T09:51:51;11.93;;;10.33;;
3704;SDS011;1868;48.918;9.438;2024-03-06T09:54:22;13.13;;;10.00;;
3704;SDS011;1868;48.918;9.438;2024-03-06T09:56:54;14.17;;;11.60;;
3704;SDS011;1868;48.918;9.438;2024-03-06T09:59:24;13.77;;;11.47;;
3704;SDS011;1868;48.918;9.438;2024-03-06T10:01:55;15.53;;;11.27;;
3704;SDS011;1868;48.918;9.438;2024-03-06T10:04:32;13.00;;;10.47;;
3704;SDS011;1868;48.918;9.438;2024-03-06T10:07:05;14.07;;;11.40;;
3704;SDS011;1868;48.918;9.438;2024-03-06T10:09:34;13.70;;;11.57;;
3704;SDS011;1868;48.918;9.438;2024-03-06T10:12:03;12.70;;;11.10;;
3704;SDS011;1868;48.918;9.438;2024-03-06T10:14:34;13.93;;;11.13;;
3704;SDS011;1868;48.918;9.438;2024-03-06T10:17:04;12.27;;;10.53;;
3704;SDS011;1868;48.918;9.438;2024-03-06T10:19:33;16.00;;;12.13;;
3704;SDS011;1868;48.918;9.438;2024-03-06T10:22:02;12.47;;;10.80;;
3704;SDS011;1868;48.918;9.438;2024-03-06T10:24:37;18.63;;;10.87;;
3704;SDS011;1868;48.918;9.438;2024-03-06T10:27:08;14.63;;;11.67;;
3704;SDS011;1868;48.918;9.438;2024-03-06T10:29:45;17.47;;;11.20;;
3704;SDS011;1868;48.918;9.438;2024-03-06T10:32:16;13.87;;;12.40;;
3704;SDS011;1868;48.918;9.438;2024-03-06T10:34:48;11.93;;;10.30;;
3704;SDS011;1868;48.918;9.438;2024-03-06T10:37:18;15.60;;;11.40;;
3704;SDS011;1868;48.918;9.438;2024-03-06T10:39:48;14.30;;;11.57;;
3704;SDS011;1868;48.918;9.438;2024-03-06T10:42:22;18.90;;;12.93;;
3704;SDS011;1868;48.918;9.438;2024-03-06T10:44:54;13.53;;;11.87;;
3704;SDS011;1868;48.918;9.438;2024-03-06T10:47:26;12.73;;;11.43;;
3704;SDS011;1868;48.918;9.438;2024-03-06T10:49:58;15.53;;;12.23;;
3704;SDS011;1868;48.918;9.438;2024-03-06T10:52:29;15.50;;;12.97;;
3704;SDS011;1868;48.918;9.438;2024-03-06T10:55:01;15.93;;;12.53;;
3704;SDS011;1868;48.918;9.438;2024-03-06T10:57:31;12.30;;;11.00;;
3704;SDS011;1868;48.918;9.438;2024-03-06T11:00:01;14.20;;;11.70;;
3704;SDS011;1868;48.918;9.438;2024-03-06T11:02:32;12.23;;;10.90;;
3704;SDS011;1868;48.918;9.438;2024-03-06T11:05:05;14.17;;;11.70;;
3704;SDS011;1868;48.918;9.438;2024-03-06T11:07:37;15.83;;;11.20;;
3704;SDS011;1868;48.918;9.438;2024-03-06T11:10:06;14.90;;;12.20;;
3704;SDS011;1868;48.918;9.438;2024-03-06T11:12:44;18.93;;;12.60;;
3704;SDS011;1868;48.918;9.438;2024-03-06T11:15:16;14.90;;;12.13;;
3704;SDS011;1868;48.918;9.438;2024-03-06T11:17:44;14.13;;;11.73;;
3704;SDS011;1868;48.918;9.438;2024-03-06T11:20:15;13.33;;;11.83;;
3704;SDS011;1868;48.918;9.438;2024-03-06T11:25:55;14.17;;;11.80;;
3704;SDS011;1868;48.918;9.438;2024-03-06T11:28:30;15.80;;;12.37;;
3704;SDS011;1868;48.918;9.438;2024-03-06T11:31:02;13.83;;;11.90;;
3704;SDS011;1868;48.918;9.438;2024-03-06T11:33:36;17.07;;;12.13;;
3704;SDS011;1868;48.918;9.438;2024-03-06T11:39:02;12.23;;;10.93;;
3704;SDS011;1868;48.918;9.438;2024-03-06T11:41:46;15.47;;;12.50;;
3704;SDS011;1868;48.918;9.438;2024-03-06T11:44:18;14.73;;;10.23;;
3704;SDS011;1868;48.918;9.438;2024-03-06T11:46:57;14.03;;;11.77;;
3704;SDS011;1868;48.918;9.438;2024-03-06T11:49:28;16.27;;;12.90;;
3704;SDS011;1868;48.918;9.438;2024-03-06T11:52:00;13.57;;;11.20;;
3704;SDS011;1868;48.918;9.438;2024-03-06T11:54:36;15.20;;;12.30;;
3704;SDS011;1868;48.918;9.438;2024-03-06T11:57:05;14.20;;;11.90;;
3704;SDS011;1868;48.918;9.438;2024-03-06T11:59:35;15.00;;;12.20;;
3704;SDS011;1868;48.918;9.438;2024-03-06T12:02:07;16.20;;;12.33;;
3704;SDS011;1868;48.918;9.438;2024-03-06T12:04:37;15.50;;;10.87;;
3704;SDS011;1868;48.918;9.438;2024-03-06T12:07:06;19.23;;;13.40;;
3704;SDS011;1868;48.918;9.438;2024-03-06T12:09:38;17.27;;;13.40;;
3704;SDS011;1868;48.918;9.438;2024-03-06T12:12:10;17.90;;;13.20;;
3704;SDS011;1868;48.918;9.438;2024-03-06T12:14:39;16.67;;;13.10;;
3704;SDS011;1868;48.918;9.438;2024-03-06T12:17:11;15.50;;;12.77;;
3704;SDS011;1868;48.918;9.438;2024-03-06T12:19:43;18.97;;;14.47;;
3704;SDS011;1868;48.918;9.438;2024-03-06T12:22:12;20.30;;;15.83;;
3704;SDS011;1868;48.918;9.438;2024-03-06T12:24:44;17.63;;;13.07;;
3704;SDS011;1868;48.918;9.438;2024-03-06T12:27:13;14.40;;;12.40;;
3704;SDS011;1868;48.918;9.438;2024-03-06T12:29:42;18.03;;;14.00;;
3704;SDS011;1868;48.918;9.438;2024-03-06T12:32:17;21.13;;;15.30;;
3704;SDS011;1868;48.918;9.438;2024-03-06T12:34:56;18.73;;;13.80;;
3704;SDS011;1868;48.918;9.438;2024-03-06T12:37:30;22.10;;;15.20;;
3704;SDS011;1868;48.918;9.438;2024-03-06T12:40:04;19.40;;;15.07;;
3704;SDS011;1868;48.918;9.438;2024-03-06T12:42:40;19.37;;;14.17;;
3704;SDS011;1868;48.918;9.438;2024-03-06T12:45:10;18.33;;;14.70;;
3704;SDS011;1868;48.918;9.438;2024-03-06T12:47:40;17.60;;;14.10;;
3704;SDS011;1868;48.918;9.438;2024-03-06T12:50:10;17.47;;;13.53;;
3704;SDS011;1868;48.918;9.438;2024-03-06T12:52:43;19.13;;;14.57;;
3704;SDS011;1868;48.918;9.438;2024-03-06T12:55:14;19.70;;;15.70;;
3704;SDS011;1868;48.918;9.438;2024-03-06T12:57:44;19.20;;;14.70;;
3704;SDS011;1868;48.918;9.438;2024-03-06T13:00:14;19.10;;;15.53;;
3704;SDS011;1868;48.918;9.438;2024-03-06T13:02:43;27.87;;;17.10;;
3704;SDS011;1868;48.918;9.438;2024-03-06T13:05:13;23.07;;;16.67;;
3704;SDS011;1868;48.918;9.438;2024-03-06T13:07:42;22.10;;;16.97;;
3704;SDS011;1868;48.918;9.438;2024-03-06T13:10:11;24.63;;;17.80;;
3704;SDS011;1868;48.918;9.438;2024-03-06T13:12:44;21.63;;;17.40;;
3704;SDS011;1868;48.918;9.438;2024-03-06T13:15:13;22.30;;;16.30;;
3704;SDS011;1868;48.918;9.438;2024-03-06T13:17:42;22.90;;;18.40;;
3704;SDS011;1868;48.918;9.438;2024-03-06T13:20:11;23.50;;;16.87;;
3704;SDS011;1868;48.918;9.438;2024-03-06T13:22:40;26.03;;;16.93;;
3704;SDS011;1868;48.918;9.438;2024-03-06T13:25:10;25.30;;;18.73;;
3704;SDS011;1868;48.918;9.438;2024-03-06T13:27:41;22.57;;;17.23;;
3704;SDS011;1868;48.918;9.438;2024-03-06T13:30:10;25.47;;;19.70;;
3704;SDS011;1868;48.918;9.438;2024-03-06T13:32:41;25.37;;;19.17;;
3704;SDS011;1868;48.918;9.438;2024-03-06T13:35:12;26.10;;;18.07;;
3704;SDS011;1868;48.918;9.438;2024-03-06T13:37:43;24.33;;;17.17;;
3704;SDS011;1868;48.918;9.438;2024-03-06T13:40:12;22.60;;;15.70;;
3704;SDS011;1868;48.918;9.438;2024-03-06T13:42:42;21.43;;;15.40;;
3704;SDS011;1868;48.918;9.438;2024-03-06T13:45:12;17.63;;;14.70;;
3704;SDS011;1868;48.918;9.438;2024-03-06T13:47:42;19.83;;;14.50;;
3704;SDS011;1868;48.918;9.438;2024-03-06T13:50:13;21.50;;;16.40;;
3704;SDS011;1868;48.918;9.438;2024-03-06T13:52:43;17.57;;;13.60;;
3704;SDS011;1868;48.918;9.438;2024-03-06T13:55:12;18.87;;;14.30;;
3704;SDS011;1868;48.918;9.438;2024-03-06T13:57:43;23.87;;;15.90;;
3704;SDS011;1868;48.918;9.438;2024-03-06T14:00:14;18.20;;;14.30;;
3704;SDS011;1868;48.918;9.438;2024-03-06T14:02:45;22.63;;;15.33;;
3704;SDS011;1868;48.918;9.438;2024-03-06T14:05:17;17.80;;;13.93;;
3704;SDS011;1868;48.918;9.438;2024-03-06T14:07:51;21.43;;;14.63;;
3704;SDS011;1868;48.918;9.438;2024-03-06T14:10:22;19.20;;;13.93;;
3704;SDS011;1868;48.918;9.438;2024-03-06T14:12:55;20.20;;;12.80;;
3704;SDS011;1868;48.918;9.438;2024-03-06T14:15:24;18.63;;;13.40;;
3704;SDS011;1868;48.918;9.438;2024-03-06T14:17:53;15.80;;;12.27;;
3704;SDS011;1868;48.918;9.438;2024-03-06T14:20:23;16.17;;;12.90;;
3704;SDS011;1868;48.918;9.438;2024-03-06T14:22:52;17.50;;;14.03;;
3704;SDS011;1868;48.918;9.438;2024-03-06T14:25:21;18.07;;;13.97;;
3704;SDS011;1868;48.918;9.438;2024-03-06T14:27:50;18.17;;;12.30;;
3704;SDS011;1868;48.918;9.438;2024-03-06T14:30:20;18.70;;;13.97;;
3704;SDS011;1868;48.918;9.438;2024-03-06T14:32:52;16.50;;;11.80;;
3704;SDS011;1868;48.918;9.438;2024-03-06T14:35:21;16.10;;;11.90;;
3704;SDS011;1868;48.918;9.438;2024-03-06T14:37:52;19.80;;;12.57;;
3704;SDS011;1868;48.918;9.438;2024-03-06T14:40:21;18.13;;;14.13;;
3704;SDS011;1868;48.918;9.438;2024-03-06T14:42:51;19.10;;;14.03;;
3704;SDS011;1868;48.918;9.438;2024-03-06T14:45:23;17.73;;;13.33;;
3704;SDS011;1868;48.918;9.438;2024-03-06T14:47:52;19.53;;;15.27;;
3704;SDS011;1868;48.918;9.438;2024-03-06T14:50:23;23.00;;;15.33;;
3704;SDS011;1868;48.918;9.438;2024-03-06T14:52:51;15.83;;;12.30;;
3704;SDS011;1868;48.918;9.438;2024-03-06T14:55:23;17.47;;;13.57;;
3704;SDS011;1868;48.918;9.438;2024-03-06T14:57:53;21.63;;;14.40;;
3704;SDS011;1868;48.918;9.438;2024-03-06T15:00:23;16.77;;;12.83;;
3704;SDS011;1868;48.918;9.438;2024-03-06T15:02:52;22.80;;;13.83;;
3704;SDS011;1868;48.918;9.438;2024-03-06T15:05:27;16.63;;;13.37;;
3704;SDS011;1868;48.918;9.438;2024-03-06T15:07:58;19.43;;;14.20;;
3704;SDS011;1868;48.918;9.438;2024-03-06T15:10:27;23.10;;;14.43;;
3704;SDS011;1868;48.918;9.438;2024-03-06T15:12:58;23.63;;;15.17;;
3704;SDS011;1868;48.918;9.438;2024-03-06T15:15:28;23.10;;;15.90;;
3704;SDS011;1868;48.918;9.438;2024-03-06T15:18:01;23.80;;;14.17;;
3704;SDS011;1868;48.918;9.438;2024-03-06T15:20:30;23.63;;;14.53;;
3704;SDS011;1868;48.918;9.438;2024-03-06T15:23:00;26.80;;;15.47;;
3704;SDS011;1868;48.918;9.438;2024-03-06T15:25:31;25.17;;;15.93;;
3704;SDS011;1868;48.918;9.438;2024-03-06T15:28:00;30.53;;;17.47;;
3704;SDS011;1868;48.918;9.438;2024-03-06T15:30:31;25.20;;;16.67;;